Baltimore, Maryland
Traffic Map
Current Weather Conditions
Baltimore, Maryland
Broken Clouds
Broken Clouds
69°
Feels Like: 69°
Wind Chill: 69° Ceiling: 10000
Heat Index: 69° Visibility: 10mi
Dew Point: 62° Wind: 0mph
Humidity: 78% Direction: ° ()
Pressure: 29.91in Gusts: 0mph
Raw Report DataKBWI 020554Z 00000KT 10SM BKN100 21/17 A2991 RMK AO2 SLP127 T02060167 10278 20200 52009
Traffic Incident Summary
Active as of:
Severity:
Category:
InformationThere was an issue retrieving the traffic information for this location. Please try a different location or try again shortly.
Advertisements
Track Severe Weather on mobile